Winchester, Texas
Current Conditions -  °F | °C
As of 2:35 PM on Friday 21 Nov 2014 (Local Time) from K3T5 Reporting Station
Overcast Overcast  
Wind Chill: 73°   Ceiling: 1900
Heat Index: 73°   Visibility: 10mi
Dew Point: 69°   Wind: 6mph
Humidity: 86%   Direction: 140°SE
Pressure: 30.01"   Gusts: NA
Location:  29.8569°N, 96.9311°W
Report Text: K3T5 212035Z AUTO 14005KT 10SM BKN019 OVC027 23/21 A3001 RMK AO2 T02300205
Loading
Personal Weather Stations






























Interactive Weather Map New forecast layout! Learn more

10-Day Weather Forecast

Advertisements
Track Severe Weather on mobile